Time;durP1;ratioP1;P1;durP2;ratioP2;P2;SDS_P1;SDS_P2;PMS_P1;PMS_P2;Temp;Humidity;BMP_temperature;BMP_pressure;BME280_temperature;BME280_humidity;BME280_pressure;Samples;Min_cycle;Max_cycle;Signal;HPM_P1;HPM_P2
2020/12/27 00:00:52;;;;;;;28.13;19.40;;;-0.20;99.90;;;;;;4990460;28;20223;-74
2020/12/27 00:03:18;;;;;;;27.20;19.37;;;-0.10;99.90;;;;;;4991050;28;20212;-75
2020/12/27 00:05:46;;;;;;;28.50;20.93;;;-0.10;99.90;;;;;;4991213;28;20231;-75
2020/12/27 00:08:12;;;;;;;25.10;19.20;;;-0.10;99.90;;;;;;4991008;28;20204;-75
2020/12/27 00:10:39;;;;;;;25.00;18.00;;;0.00;99.90;;;;;;4991028;28;20236;-75
2020/12/27 00:13:05;;;;;;;25.57;16.80;;;0.10;99.90;;;;;;4991082;28;20208;-75
2020/12/27 00:15:31;;;;;;;19.73;15.93;;;0.20;99.90;;;;;;4990897;28;20232;-74
2020/12/27 00:17:58;;;;;;;23.70;15.53;;;0.30;99.90;;;;;;4991101;28;20205;-75
2020/12/27 00:20:24;;;;;;;16.50;13.43;;;0.30;99.90;;;;;;4990531;28;20567;-74
2020/12/27 00:22:52;;;;;;;23.00;14.07;;;0.30;99.90;;;;;;4994881;28;20216;-74
2020/12/27 00:25:18;;;;;;;16.83;11.50;;;0.30;99.90;;;;;;4980863;28;20228;-75
2020/12/27 00:27:44;;;;;;;17.27;12.90;;;0.30;99.90;;;;;;4994440;28;20227;-75
2020/12/27 00:30:11;;;;;;;20.10;13.73;;;0.30;99.90;;;;;;4994568;28;20248;-74
2020/12/27 00:32:37;;;;;;;16.70;12.63;;;0.30;99.90;;;;;;4994918;28;20295;-74
2020/12/27 00:35:04;;;;;;;15.13;11.50;;;0.20;99.90;;;;;;4994853;28;20216;-74
2020/12/27 00:37:32;;;;;;;14.57;11.77;;;0.10;99.90;;;;;;4984219;28;20208;-75
2020/12/27 00:39:59;;;;;;;14.97;11.40;;;0.10;99.90;;;;;;4994368;28;20217;-74
2020/12/27 00:42:25;;;;;;;17.17;12.10;;;0.00;99.90;;;;;;4993982;28;20728;-76
2020/12/27 00:44:52;;;;;;;15.37;11.93;;;0.00;99.90;;;;;;4994594;28;20236;-75
2020/12/27 00:47:18;;;;;;;19.13;12.00;;;0.10;99.90;;;;;;4994185;28;20216;-76
2020/12/27 00:49:45;;;;;;;16.67;12.00;;;0.10;99.90;;;;;;4994464;28;20756;-76
2020/12/27 00:52:11;;;;;;;15.40;11.07;;;0.10;99.90;;;;;;4994222;28;20228;-74
2020/12/27 00:54:38;;;;;;;18.37;11.53;;;0.10;99.90;;;;;;4994653;28;20236;-74
2020/12/27 00:57:05;;;;;;;12.73;10.27;;;0.10;99.90;;;;;;4994695;28;20240;-75
2020/12/27 00:59:31;;;;;;;14.70;10.40;;;0.00;99.90;;;;;;4993299;28;20220;-75
2020/12/27 01:01:58;;;;;;;16.73;11.07;;;0.00;99.90;;;;;;4994210;28;20216;-73
2020/12/27 01:04:24;;;;;;;13.20;10.50;;;0.00;99.90;;;;;;4993913;28;20244;-75
2020/12/27 01:06:51;;;;;;;14.00;10.13;;;-0.10;99.90;;;;;;4992293;28;20209;-75
2020/12/27 01:09:17;;;;;;;12.43;10.50;;;-0.10;99.90;;;;;;4993621;28;20213;-74
2020/12/27 01:11:45;;;;;;;12.87;10.47;;;-0.10;99.90;;;;;;4994128;28;20209;-75
2020/12/27 01:14:13;;;;;;;14.93;11.33;;;-0.10;99.90;;;;;;4994228;28;20222;-74
2020/12/27 01:16:40;;;;;;;16.70;11.00;;;-0.20;99.90;;;;;;4994012;28;20240;-74
2020/12/27 01:19:06;;;;;;;13.47;9.07;;;-0.20;99.90;;;;;;4992475;28;20271;-75
2020/12/27 01:21:35;;;;;;;13.30;10.10;;;-0.20;99.90;;;;;;4993337;28;20236;-74
2020/12/27 01:24:01;;;;;;;14.17;10.03;;;-0.20;99.90;;;;;;4993595;28;20228;-74
2020/12/27 01:26:29;;;;;;;15.53;10.33;;;-0.20;99.90;;;;;;4993222;28;20236;-74
2020/12/27 01:28:55;;;;;;;13.37;9.83;;;-0.20;99.90;;;;;;4993625;28;20213;-74
2020/12/27 01:31:23;;;;;;;14.67;9.30;;;-0.20;99.90;;;;;;4992853;28;20232;-74
2020/12/27 01:33:50;;;;;;;12.77;11.37;;;-0.20;99.90;;;;;;4993534;28;20212;-74
2020/12/27 01:36:24;;;;;;;15.07;9.77;;;-0.20;99.90;;;;;;4988535;28;20213;-75
2020/12/27 01:38:51;;;;;;;20.03;11.00;;;-0.20;99.90;;;;;;4985625;28;20204;-75
2020/12/27 01:41:21;;;;;;;24.17;14.37;;;-0.10;99.90;;;;;;4993001;28;20562;-75
2020/12/27 01:44:03;;;;;;;25.50;16.53;;;-0.20;99.90;;;;;;4994035;28;20232;-75
2020/12/27 01:46:32;;;;;;;22.20;15.20;;;-0.20;99.90;;;;;;4991178;28;20212;-74
2020/12/27 01:48:58;;;;;;;23.73;14.53;;;-0.30;99.90;;;;;;4993470;28;20254;-75
2020/12/27 01:51:25;;;;;;;19.53;12.97;;;-0.20;99.90;;;;;;4992496;28;20704;-74
2020/12/27 01:53:51;;;;;;;23.70;11.67;;;-0.30;99.90;;;;;;4993218;28;20209;-74
2020/12/27 01:56:19;;;;;;;18.20;11.73;;;-0.20;99.90;;;;;;4992827;28;20669;-75
2020/12/27 01:58:47;;;;;;;14.77;10.50;;;-0.20;99.90;;;;;;4992254;28;20201;-74
2020/12/27 02:01:14;;;;;;;13.53;10.40;;;-0.30;99.90;;;;;;4992032;28;20219;-74
2020/12/27 02:03:41;;;;;;;12.53;10.30;;;-0.40;99.90;;;;;;4993328;28;20219;-75
2020/12/27 02:06:08;;;;;;;11.87;10.03;;;-0.30;99.90;;;;;;4993504;28;20212;-75
2020/12/27 02:08:37;;;;;;;14.70;10.23;;;-0.40;99.90;;;;;;4992251;28;20695;-77
2020/12/27 02:11:04;;;;;;;14.53;10.17;;;-0.40;99.90;;;;;;4992741;28;20240;-74
2020/12/27 02:13:31;;;;;;;16.23;9.33;;;-0.40;99.90;;;;;;4992262;28;20562;-74
2020/12/27 02:15:57;;;;;;;12.30;9.30;;;-0.40;99.90;;;;;;4993038;28;20205;-73
2020/12/27 02:18:24;;;;;;;13.93;8.50;;;-0.40;99.90;;;;;;4992433;28;20216;-74
2020/12/27 02:20:52;;;;;;;13.40;9.03;;;-0.40;99.90;;;;;;4992802;28;20224;-74
2020/12/27 02:23:19;;;;;;;11.53;8.70;;;-0.40;99.90;;;;;;4992438;28;20224;-74
2020/12/27 02:25:46;;;;;;;10.03;6.83;;;-0.40;99.90;;;;;;4992224;28;20216;-74
2020/12/27 02:28:13;;;;;;;12.03;7.77;;;-0.40;99.90;;;;;;4991735;28;20294;-75
2020/12/27 02:30:40;;;;;;;10.07;6.40;;;-0.40;99.90;;;;;;4990764;28;20272;-74
2020/12/27 02:33:06;;;;;;;9.80;6.70;;;-0.30;99.90;;;;;;4982710;28;20216;-73
2020/12/27 02:35:33;;;;;;;10.10;7.67;;;-0.20;99.90;;;;;;4991884;28;20213;-74
2020/12/27 02:37:59;;;;;;;11.03;7.00;;;-0.10;99.90;;;;;;4992502;28;20692;-74
2020/12/27 02:40:26;;;;;;;10.43;7.33;;;-0.10;99.90;;;;;;4991910;28;20624;-74
2020/12/27 02:42:53;;;;;;;9.47;7.33;;;-0.20;99.90;;;;;;4992274;28;20213;-74
2020/12/27 02:45:20;;;;;;;12.33;8.40;;;-0.10;99.90;;;;;;4991576;28;20220;-74
2020/12/27 02:47:46;;;;;;;10.33;6.87;;;-0.10;99.90;;;;;;4992037;28;20224;-74
2020/12/27 02:50:14;;;;;;;10.33;6.53;;;0.00;99.90;;;;;;4991557;28;20232;-74
2020/12/27 02:52:41;;;;;;;9.53;6.87;;;-0.20;99.90;;;;;;4992204;28;20204;-74
2020/12/27 02:55:07;;;;;;;10.37;7.37;;;-0.30;99.90;;;;;;4992498;28;20267;-74
2020/12/27 02:57:34;;;;;;;16.90;9.80;;;-0.40;99.90;;;;;;4991185;28;20217;-73
2020/12/27 03:00:01;;;;;;;14.87;8.30;;;-0.40;99.90;;;;;;4980688;28;20643;-74
2020/12/27 03:02:28;;;;;;;11.13;8.50;;;-0.40;99.90;;;;;;4991840;28;20212;-74
2020/12/27 03:04:54;;;;;;;10.47;7.80;;;-0.50;99.90;;;;;;4991715;28;20212;-74
2020/12/27 03:07:21;;;;;;;10.77;8.40;;;-0.40;99.90;;;;;;4983463;28;20241;-75
2020/12/27 03:09:47;;;;;;;11.07;7.90;;;-0.40;99.90;;;;;;4988817;28;20224;-75
2020/12/27 03:12:13;;;;;;;11.47;7.77;;;-0.40;99.90;;;;;;4991821;28;20205;-76
2020/12/27 03:14:40;;;;;;;11.50;7.10;;;-0.40;99.90;;;;;;4991935;28;20209;-75
2020/12/27 03:17:07;;;;;;;13.00;7.83;;;-0.50;99.90;;;;;;4992410;28;20245;-76
2020/12/27 03:19:34;;;;;;;11.57;7.60;;;-0.50;99.90;;;;;;4991160;28;20263;-76
2020/12/27 03:22:00;;;;;;;9.53;7.60;;;-0.60;99.90;;;;;;4991509;28;21144;-75
2020/12/27 03:24:26;;;;;;;15.50;8.03;;;-0.60;99.90;;;;;;4991136;28;20220;-75
2020/12/27 03:26:53;;;;;;;17.30;9.10;;;-0.50;99.90;;;;;;4991665;28;20261;-76
2020/12/27 03:29:19;;;;;;;14.47;9.13;;;-0.50;99.90;;;;;;4990638;28;20200;-75
2020/12/27 03:31:46;;;;;;;16.73;11.70;;;-0.50;99.90;;;;;;4989886;28;20449;-75
2020/12/27 03:34:14;;;;;;;15.07;9.63;;;-0.60;99.90;;;;;;4990309;28;20206;-76
2020/12/27 03:36:41;;;;;;;15.50;10.70;;;-0.60;99.90;;;;;;4990306;28;20209;-75
2020/12/27 03:39:07;;;;;;;12.57;9.83;;;-0.60;99.90;;;;;;4991736;28;21513;-75
2020/12/27 03:41:34;;;;;;;11.30;9.40;;;-0.60;99.90;;;;;;4990872;28;20236;-76
2020/12/27 03:44:00;;;;;;;12.30;8.60;;;-0.60;99.90;;;;;;4991305;28;20212;-76
2020/12/27 03:46:27;;;;;;;12.83;8.97;;;-0.60;99.90;;;;;;4990958;28;20247;-75
2020/12/27 03:48:53;;;;;;;12.37;9.80;;;-0.70;99.90;;;;;;4990875;28;20209;-75
2020/12/27 03:51:20;;;;;;;10.90;8.13;;;-0.70;99.90;;;;;;4990591;28;20243;-75
2020/12/27 03:53:47;;;;;;;14.10;7.90;;;-0.70;99.90;;;;;;4990865;28;20743;-75
2020/12/27 03:56:13;;;;;;;11.37;8.60;;;-0.70;99.90;;;;;;4990133;28;20575;-74
2020/12/27 03:58:40;;;;;;;13.63;9.90;;;-0.60;99.90;;;;;;4991339;28;20618;-75
2020/12/27 04:01:06;;;;;;;16.40;10.17;;;-0.60;99.90;;;;;;4990856;28;20205;-74
2020/12/27 04:03:32;;;;;;;14.57;9.60;;;-0.60;99.90;;;;;;4990432;28;20247;-75
2020/12/27 04:05:59;;;;;;;12.17;8.70;;;-0.60;99.90;;;;;;4990662;28;20209;-75
2020/12/27 04:08:26;;;;;;;12.87;9.00;;;-0.70;99.90;;;;;;4990512;28;20205;-75
2020/12/27 04:10:53;;;;;;;13.53;9.60;;;-0.70;99.90;;;;;;4990575;28;20618;-75
2020/12/27 04:13:19;;;;;;;11.67;8.87;;;-0.70;99.90;;;;;;4990349;28;20245;-75
2020/12/27 04:15:46;;;;;;;13.47;10.03;;;-0.60;99.90;;;;;;4990666;28;20239;-75
2020/12/27 04:18:12;;;;;;;11.80;8.47;;;-0.70;99.90;;;;;;4990745;28;20213;-75
2020/12/27 04:20:38;;;;;;;13.03;8.77;;;-0.70;99.90;;;;;;4991082;28;20201;-75
2020/12/27 04:23:05;;;;;;;12.00;8.23;;;-0.80;99.90;;;;;;4990634;28;20246;-75
2020/12/27 04:25:32;;;;;;;10.93;8.80;;;-0.90;99.90;;;;;;4990119;28;20223;-75
2020/12/27 04:27:59;;;;;;;10.73;9.27;;;-0.90;99.90;;;;;;4990715;28;20703;-75
2020/12/27 04:30:25;;;;;;;11.97;8.20;;;-0.90;99.90;;;;;;4990262;28;20240;-76
2020/12/27 04:32:52;;;;;;;12.03;8.63;;;-1.00;99.90;;;;;;4990111;28;20696;-75
2020/12/27 04:35:18;;;;;;;12.97;8.77;;;-1.00;99.90;;;;;;4990008;28;20213;-75
2020/12/27 04:37:44;;;;;;;12.40;9.10;;;-1.00;99.90;;;;;;4990806;28;20205;-74
2020/12/27 04:40:11;;;;;;;10.50;7.60;;;-1.10;99.90;;;;;;4990663;28;20224;-75
2020/12/27 04:42:38;;;;;;;11.20;8.83;;;-1.00;99.90;;;;;;4990411;28;20209;-76
2020/12/27 04:45:05;;;;;;;21.40;10.03;;;-0.90;99.90;;;;;;4990894;28;20213;-76
2020/12/27 04:47:35;;;;;;;13.67;9.17;;;-0.80;99.90;;;;;;4988841;28;20205;-76
2020/12/27 04:50:01;;;;;;;12.43;10.03;;;-0.90;99.90;;;;;;4989661;28;20237;-76
2020/12/27 04:52:32;;;;;;;12.40;8.83;;;-0.90;99.90;;;;;;4989118;28;20205;-76
2020/12/27 04:54:59;;;;;;;13.77;9.53;;;-0.90;99.90;;;;;;4989196;28;20712;-75
2020/12/27 04:57:27;;;;;;;12.67;8.90;;;-1.00;99.90;;;;;;4989796;28;20209;-76
2020/12/27 04:59:56;;;;;;;12.37;8.40;;;-1.00;99.90;;;;;;4987729;28;20639;-76
2020/12/27 05:02:22;;;;;;;12.60;9.10;;;-1.00;99.90;;;;;;4988903;28;20212;-76
2020/12/27 05:04:49;;;;;;;12.43;8.07;;;-1.00;99.90;;;;;;4989438;28;20283;-76
2020/12/27 05:07:19;;;;;;;12.37;9.30;;;-1.10;99.90;;;;;;4991372;28;20205;-75
2020/12/27 05:09:49;;;;;;;13.50;8.53;;;-1.20;99.90;;;;;;4993950;28;20205;-76
2020/12/27 05:12:16;;;;;;;12.30;7.67;;;-1.20;99.90;;;;;;4993554;28;20208;-78
2020/12/27 05:14:44;;;;;;;10.77;7.73;;;-1.20;99.90;;;;;;4993462;28;20212;-75
2020/12/27 05:17:13;;;;;;;13.03;7.70;;;-1.20;99.90;;;;;;4994026;28;20213;-75
2020/12/27 05:19:40;;;;;;;9.53;7.50;;;-1.20;99.90;;;;;;4994241;28;20212;-75
2020/12/27 05:22:08;;;;;;;9.97;7.30;;;-1.10;99.90;;;;;;4994011;28;20214;-74
2020/12/27 05:24:37;;;;;;;12.30;7.47;;;-1.10;99.90;;;;;;4992726;28;20208;-76
2020/12/27 05:27:06;;;;;;;10.03;7.77;;;-1.20;99.90;;;;;;4993085;28;20265;-77
2020/12/27 05:29:34;;;;;;;12.07;7.37;;;-1.30;99.90;;;;;;4992931;28;20239;-77
2020/12/27 05:32:01;;;;;;;10.30;6.60;;;-1.30;99.90;;;;;;4991421;28;20825;-76
2020/12/27 05:34:29;;;;;;;8.67;7.33;;;-1.20;99.90;;;;;;4993228;28;20665;-76
2020/12/27 05:36:57;;;;;;;8.73;6.67;;;-1.20;99.90;;;;;;4993975;28;20221;-75
2020/12/27 05:39:24;;;;;;;10.33;7.50;;;-1.30;99.90;;;;;;4992805;28;20239;-76
2020/12/27 05:41:51;;;;;;;9.37;7.07;;;-1.20;99.90;;;;;;4993352;28;20220;-75
2020/12/27 05:44:20;;;;;;;13.57;7.33;;;-1.20;99.90;;;;;;4992902;28;20211;-76
2020/12/27 05:46:46;;;;;;;9.63;7.67;;;-1.20;99.90;;;;;;4993556;28;20251;-76
2020/12/27 05:49:13;;;;;;;9.87;6.80;;;-1.00;99.90;;;;;;4993021;28;20216;-75
2020/12/27 05:51:51;;;;;;;9.23;6.80;;;-1.00;99.90;;;;;;4993656;28;20240;-76
2020/12/27 05:54:32;;;;;;;9.73;7.53;;;-0.90;99.90;;;;;;4991546;28;20215;-76
2020/12/27 05:57:01;;;;;;;14.63;8.17;;;-1.00;99.90;;;;;;4993208;28;20208;-76
2020/12/27 05:59:30;;;;;;;15.87;8.47;;;-0.80;99.90;;;;;;4992346;28;20216;-76
2020/12/27 06:01:58;;;;;;;11.03;7.17;;;-0.70;99.90;;;;;;4992795;28;20220;-76
2020/12/27 06:05:00;;;;;;;8.17;6.93;;;-0.70;99.90;;;;;;4992680;28;20224;-77
2020/12/27 06:07:38;;;;;;;11.40;6.90;;;-0.80;99.90;;;;;;4961662;28;20212;-77
2020/12/27 06:10:10;;;;;;;8.50;6.57;;;-0.70;99.90;;;;;;4992784;28;20232;-77
2020/12/27 06:12:47;;;;;;;10.53;7.13;;;-0.70;99.90;;;;;;4992951;28;20252;-77
2020/12/27 06:15:24;;;;;;;11.53;7.07;;;-0.70;99.90;;;;;;4992209;28;20240;-77
2020/12/27 06:18:10;;;;;;;9.67;6.80;;;-0.70;99.90;;;;;;4992808;28;20295;-78
2020/12/27 06:20:38;;;;;;;14.07;7.63;;;-0.70;99.90;;;;;;4992686;28;20205;-78
2020/12/27 06:23:06;;;;;;;11.40;7.90;;;-0.70;99.90;;;;;;4992496;28;20217;-77
2020/12/27 06:25:33;;;;;;;9.40;6.50;;;-0.70;99.90;;;;;;4992188;28;21075;-77
2020/12/27 06:28:00;;;;;;;18.73;7.80;;;-0.70;99.90;;;;;;4992813;28;20205;-76
2020/12/27 06:30:31;;;;;;;11.37;8.10;;;-0.90;99.90;;;;;;4991557;28;20229;-76
2020/12/27 06:33:12;;;;;;;9.53;6.90;;;-0.90;99.90;;;;;;4992755;28;20213;-77
2020/12/27 06:35:39;;;;;;;10.07;6.90;;;-0.90;99.90;;;;;;4992957;28;20563;-76
2020/12/27 06:38:15;;;;;;;7.27;6.50;;;-1.00;99.90;;;;;;4992407;28;20220;-77
2020/12/27 06:40:43;;;;;;;13.03;8.33;;;-1.00;99.90;;;;;;4989920;28;20213;-76
2020/12/27 06:43:18;;;;;;;10.10;7.00;;;-1.00;99.90;;;;;;4992050;28;20219;-75
2020/12/27 06:45:45;;;;;;;9.53;7.17;;;-1.00;99.90;;;;;;4991908;28;20695;-77
2020/12/27 06:48:11;;;;;;;10.53;7.83;;;-1.00;99.90;;;;;;4992337;28;20209;-76
2020/12/27 06:50:46;;;;;;;13.73;8.27;;;-0.90;99.90;;;;;;4992335;28;20243;-76
2020/12/27 06:53:37;;;;;;;12.50;7.67;;;-1.00;99.90;;;;;;4992301;28;20205;-76
2020/12/27 06:56:05;;;;;;;12.10;7.87;;;-1.00;99.90;;;;;;4992092;28;20215;-77
2020/12/27 06:58:31;;;;;;;12.60;7.90;;;-0.90;99.90;;;;;;4991354;28;20359;-76
2020/12/27 07:01:16;;;;;;;8.97;7.23;;;-1.00;99.90;;;;;;4991017;28;20696;-76
2020/12/27 07:03:44;;;;;;;9.27;7.23;;;-0.90;99.90;;;;;;4991396;28;20208;-76
2020/12/27 07:06:23;;;;;;;12.17;6.43;;;-0.90;99.90;;;;;;4991385;28;20247;-77
2020/12/27 07:08:55;;;;;;;10.23;6.37;;;-0.80;99.90;;;;;;4991962;28;20220;-76
2020/12/27 07:11:24;;;;;;;7.63;6.53;;;-0.70;99.90;;;;;;4990856;28;20723;-79
2020/12/27 07:13:54;;;;;;;7.33;5.83;;;-0.70;99.90;;;;;;4991757;28;20598;-80
2020/12/27 07:16:21;;;;;;;9.83;5.63;;;-0.70;99.90;;;;;;4991652;28;20216;-78
2020/12/27 07:18:48;;;;;;;10.47;6.30;;;-0.60;99.90;;;;;;4991756;28;20595;-82
2020/12/27 07:21:21;;;;;;;6.20;5.37;;;-0.50;99.90;;;;;;4991397;28;20220;-78
2020/12/27 07:24:11;;;;;;;8.20;4.87;;;-0.50;99.90;;;;;;4991862;28;20216;-81
2020/12/27 07:26:41;;;;;;;9.30;6.03;;;-0.50;99.90;;;;;;4991660;28;20219;-81
2020/12/27 07:29:09;;;;;;;6.13;4.77;;;-0.40;99.90;;;;;;4992197;28;20204;-83
2020/12/27 07:31:36;;;;;;;13.83;5.93;;;-0.40;99.90;;;;;;4990619;28;20236;-80
2020/12/27 07:34:04;;;;;;;7.00;5.63;;;-0.40;99.90;;;;;;4991508;28;20201;-79
2020/12/27 07:36:33;;;;;;;7.73;5.17;;;-0.40;99.90;;;;;;4991050;28;20216;-77
2020/12/27 07:39:03;;;;;;;10.00;5.17;;;-0.40;99.90;;;;;;4982782;28;20209;-79
2020/12/27 07:41:31;;;;;;;11.77;5.97;;;-0.30;99.90;;;;;;4991033;28;20213;-80
2020/12/27 07:43:58;;;;;;;9.87;5.10;;;-0.30;99.90;;;;;;4990104;28;20224;-77
2020/12/27 07:46:26;;;;;;;7.77;5.50;;;-0.20;99.90;;;;;;4988645;28;20621;-77
2020/12/27 07:48:54;;;;;;;6.63;5.37;;;-0.20;99.90;;;;;;4990282;28;20205;-79
2020/12/27 07:51:21;;;;;;;9.57;5.43;;;-0.20;99.90;;;;;;4985941;28;20236;-76
2020/12/27 07:53:48;;;;;;;4.57;3.90;;;-0.20;99.90;;;;;;4983060;28;20213;-80
2020/12/27 07:56:20;;;;;;;7.97;4.73;;;-0.20;99.90;;;;;;4990201;28;20283;-81
2020/12/27 07:58:49;;;;;;;7.30;4.47;;;-0.10;99.90;;;;;;4990835;28;20205;-77
2020/12/27 08:01:27;;;;;;;6.07;4.53;;;0.00;99.90;;;;;;4986455;28;20228;-74
2020/12/27 08:03:55;;;;;;;6.47;4.57;;;0.10;99.90;;;;;;4987892;28;20208;-75
2020/12/27 08:06:23;;;;;;;8.00;5.20;;;0.10;99.90;;;;;;4990147;28;20215;-78
2020/12/27 08:08:59;;;;;;;6.80;4.40;;;0.20;99.90;;;;;;4989780;28;20209;-78
2020/12/27 08:11:26;;;;;;;5.33;4.30;;;0.20;99.90;;;;;;4990377;28;20236;-76
2020/12/27 08:13:54;;;;;;;5.37;3.63;;;0.20;99.90;;;;;;4990763;28;20209;-82
2020/12/27 08:16:21;;;;;;;6.00;5.50;;;0.50;99.90;;;;;;4990691;28;20217;-77
2020/12/27 08:18:48;;;;;;;7.10;4.07;;;0.50;99.90;;;;;;4991042;28;20216;-76
2020/12/27 08:21:20;;;;;;;5.30;3.70;;;0.40;99.90;;;;;;4990770;28;20209;-69
2020/12/27 08:24:00;;;;;;;6.60;4.17;;;0.50;99.90;;;;;;4990420;28;20225;-74
2020/12/27 08:26:29;;;;;;;6.47;5.03;;;0.50;99.90;;;;;;4990343;28;20680;-82
2020/12/27 08:29:10;;;;;;;8.43;5.50;;;0.60;99.90;;;;;;4990835;28;20216;-71
2020/12/27 08:31:37;;;;;;;11.60;7.03;;;0.70;99.90;;;;;;4990713;28;20275;-83
2020/12/27 08:34:06;;;;;;;11.50;8.27;;;0.80;99.90;;;;;;4990982;28;20205;-82
2020/12/27 08:36:33;;;;;;;13.47;9.37;;;0.70;99.90;;;;;;4990471;28;20703;-71
2020/12/27 08:39:04;;;;;;;14.47;10.27;;;0.70;99.90;;;;;;4990365;28;20213;-81
2020/12/27 08:41:37;;;;;;;12.67;8.50;;;0.80;99.90;;;;;;4989413;28;20823;-74
2020/12/27 08:44:33;;;;;;;13.27;7.43;;;0.80;99.90;;;;;;4993744;28;20573;-80
2020/12/27 08:47:03;;;;;;;7.77;5.63;;;0.80;99.90;;;;;;4989175;28;20212;-75
2020/12/27 08:49:44;;;;;;;10.27;6.07;;;0.90;99.90;;;;;;4990831;28;20210;-81
2020/12/27 08:52:18;;;;;;;8.97;5.30;;;0.90;99.90;;;;;;4992967;28;20221;-71
2020/12/27 08:54:46;;;;;;;6.00;4.50;;;0.80;99.90;;;;;;4992866;28;20215;-72
2020/12/27 08:57:16;;;;;;;6.33;5.00;;;1.00;99.90;;;;;;4993138;28;20584;-71
2020/12/27 08:59:59;;;;;;;8.00;5.07;;;1.00;99.90;;;;;;4991395;28;20590;-71
2020/12/27 09:02:26;;;;;;;7.93;5.93;;;0.90;99.90;;;;;;4991770;28;20212;-72
2020/12/27 09:05:05;;;;;;;8.93;6.07;;;1.00;99.90;;;;;;4992442;28;20212;-71
2020/12/27 09:07:33;;;;;;;8.23;5.57;;;1.00;99.90;;;;;;4992107;28;20216;-71
2020/12/27 09:10:08;;;;;;;6.70;5.57;;;1.00;99.90;;;;;;4992627;28;20213;-71
2020/12/27 09:12:36;;;;;;;11.20;8.50;;;1.30;99.90;;;;;;4984410;28;20232;-75
2020/12/27 09:15:21;;;;;;;10.73;7.20;;;1.30;99.90;;;;;;4992962;28;20216;-72
2020/12/27 09:17:54;;;;;;;10.00;7.13;;;1.20;99.90;;;;;;4993692;28;20205;-74
2020/12/27 09:20:21;;;;;;;9.37;6.97;;;1.50;99.90;;;;;;4981742;28;20240;-77
2020/12/27 09:22:48;;;;;;;9.00;7.20;;;1.60;99.90;;;;;;4993404;28;20693;-71
2020/12/27 09:25:17;;;;;;;16.23;12.03;;;1.50;99.90;;;;;;4992786;28;20240;-79
2020/12/27 09:27:44;;;;;;;11.87;7.77;;;1.80;99.90;;;;;;4993585;28;20292;-80
2020/12/27 09:30:15;;;;;;;9.73;8.07;;;1.90;99.90;;;;;;4993949;28;20677;-77
2020/12/27 09:32:41;;;;;;;10.20;8.40;;;1.70;99.90;;;;;;4993530;28;20201;-79
2020/12/27 09:35:08;;;;;;;10.93;8.03;;;1.90;99.90;;;;;;4993759;28;20591;-77
2020/12/27 09:37:35;;;;;;;9.63;6.60;;;1.60;99.90;;;;;;4991884;28;20204;-81
2020/12/27 09:40:03;;;;;;;9.67;7.57;;;1.40;99.90;;;;;;4993803;28;20292;-80
2020/12/27 09:42:33;;;;;;;10.43;7.30;;;1.60;99.90;;;;;;4992614;28;20253;-81
2020/12/27 09:45:17;;;;;;;10.87;7.40;;;1.60;99.90;;;;;;4991889;28;20224;-82
2020/12/27 09:47:51;;;;;;;9.93;7.37;;;1.60;99.90;;;;;;4992664;28;20213;-81
2020/12/27 09:50:24;;;;;;;16.87;10.87;;;1.60;99.90;;;;;;4992893;28;20233;-83
2020/12/27 09:52:50;;;;;;;10.00;7.13;;;1.60;99.90;;;;;;4993323;28;20204;-82
2020/12/27 09:55:17;;;;;;;13.50;8.97;;;1.50;99.90;;;;;;4993106;28;20228;-83
2020/12/27 09:57:43;;;;;;;9.20;7.90;;;1.70;99.90;;;;;;4993450;28;20236;-82
2020/12/27 10:00:11;;;;;;;25.10;13.33;;;1.90;99.90;;;;;;4993394;28;20205;-76
2020/12/27 10:02:37;;;;;;;27.83;18.67;;;1.90;99.90;;;;;;4992806;28;20292;-73
2020/12/27 10:05:04;;;;;;;16.37;11.27;;;1.90;99.90;;;;;;4988040;28;20205;-73
2020/12/27 10:07:30;;;;;;;37.73;23.27;;;1.90;99.90;;;;;;4985377;28;21087;-74
2020/12/27 10:09:57;;;;;;;42.10;26.27;;;2.20;99.90;;;;;;4988697;28;20216;-77
2020/12/27 10:12:23;;;;;;;110.97;62.20;;;2.20;99.90;;;;;;4992301;28;20220;-75
2020/12/27 10:14:51;;;;;;;37.57;25.67;;;2.40;99.90;;;;;;4992459;28;20208;-73
2020/12/27 10:17:18;;;;;;;15.77;10.57;;;2.80;99.90;;;;;;4992495;28;20216;-74
2020/12/27 10:19:45;;;;;;;29.13;18.03;;;2.80;99.90;;;;;;4992266;28;20209;-77
2020/12/27 10:22:11;;;;;;;62.13;35.47;;;2.70;99.90;;;;;;4992650;28;20244;-76
2020/12/27 10:24:38;;;;;;;17.70;13.07;;;2.70;99.90;;;;;;4992698;28;20220;-75
2020/12/27 10:27:06;;;;;;;45.47;26.13;;;2.70;99.90;;;;;;4991982;28;20216;-76
2020/12/27 10:29:33;;;;;;;9.67;8.17;;;2.70;99.90;;;;;;4988746;28;20779;-76
2020/12/27 10:32:01;;;;;;;12.07;9.37;;;2.80;99.90;;;;;;4983649;28;20243;-76
2020/12/27 10:34:29;;;;;;;8.70;6.70;;;2.90;99.90;;;;;;4991741;28;20220;-75
2020/12/27 10:36:57;;;;;;;11.70;9.00;;;3.00;99.90;;;;;;4992121;28;20586;-73
2020/12/27 10:39:24;;;;;;;9.60;8.00;;;2.90;99.90;;;;;;4998123;28;20204;-78
2020/12/27 10:41:51;;;;;;;15.10;9.10;;;3.00;99.90;;;;;;4992849;28;20213;-76
2020/12/27 10:44:18;;;;;;;14.63;10.97;;;3.20;99.90;;;;;;4991595;28;20208;-76
2020/12/27 10:46:45;;;;;;;9.67;7.77;;;3.20;99.90;;;;;;4992064;28;20291;-75
2020/12/27 10:49:12;;;;;;;9.33;7.50;;;3.20;99.90;;;;;;4987970;28;20240;-77
2020/12/27 10:51:41;;;;;;;13.40;8.07;;;3.30;99.90;;;;;;4991919;28;20240;-70
2020/12/27 10:54:09;;;;;;;18.77;12.20;;;3.30;99.90;;;;;;4989361;28;20212;-77
2020/12/27 10:56:36;;;;;;;28.07;20.50;;;3.50;99.90;;;;;;4991577;28;20217;-72
2020/12/27 10:59:02;;;;;;;6.13;5.43;;;3.60;99.90;;;;;;4994505;28;20213;-73
2020/12/27 11:01:28;;;;;;;8.17;6.53;;;3.50;99.90;;;;;;4986206;28;20659;-75
2020/12/27 11:03:55;;;;;;;7.00;5.73;;;3.30;99.90;;;;;;4988917;28;20269;-73
2020/12/27 11:06:28;;;;;;;13.60;9.07;;;3.40;99.90;;;;;;4989225;28;20842;-74
2020/12/27 11:08:55;;;;;;;7.27;6.57;;;3.30;99.90;;;;;;4990505;28;20589;-75
2020/12/27 11:11:22;;;;;;;5.73;4.67;;;3.30;99.90;;;;;;4989403;28;20279;-72
2020/12/27 11:13:48;;;;;;;6.50;4.47;;;3.10;99.90;;;;;;4979404;28;20216;-74
2020/12/27 11:16:15;;;;;;;5.57;4.17;;;3.10;99.90;;;;;;4979480;28;20279;-74
2020/12/27 11:18:41;;;;;;;5.07;4.57;;;3.40;99.90;;;;;;4978609;28;20505;-72
2020/12/27 11:21:08;;;;;;;6.43;4.50;;;3.60;99.90;;;;;;4979788;28;20693;-72
2020/12/27 11:23:34;;;;;;;6.17;3.90;;;3.50;99.90;;;;;;4975770;28;20821;-73
2020/12/27 11:26:01;;;;;;;5.13;4.63;;;3.40;99.90;;;;;;4975614;28;20715;-75
2020/12/27 11:28:28;;;;;;;5.83;3.70;;;3.50;99.90;;;;;;4983233;28;20770;-76
2020/12/27 11:30:54;;;;;;;4.83;4.20;;;3.60;99.90;;;;;;4990107;28;20680;-75
2020/12/27 11:33:21;;;;;;;6.40;4.43;;;3.70;99.90;;;;;;4990194;28;20684;-75
2020/12/27 11:35:47;;;;;;;4.97;3.90;;;3.70;99.90;;;;;;4987284;28;20205;-72
2020/12/27 11:38:14;;;;;;;8.60;4.23;;;3.90;99.90;;;;;;4987792;28;20204;-75
2020/12/27 11:40:40;;;;;;;3.77;3.20;;;4.00;99.90;;;;;;4980691;28;20236;-77
2020/12/27 11:43:08;;;;;;;4.73;3.40;;;4.20;99.90;;;;;;4986211;28;20212;-73
2020/12/27 11:45:34;;;;;;;4.00;3.53;;;4.30;99.90;;;;;;4976569;28;20217;-75
2020/12/27 11:48:00;;;;;;;5.73;4.07;;;4.20;99.90;;;;;;4976899;28;20213;-72
2020/12/27 11:50:27;;;;;;;6.03;3.73;;;4.40;99.90;;;;;;4979539;28;20264;-73
2020/12/27 11:52:53;;;;;;;5.37;3.10;;;4.40;99.90;;;;;;4975552;28;20248;-71
2020/12/27 11:55:20;;;;;;;6.43;4.13;;;4.50;99.90;;;;;;4973367;28;20692;-74
2020/12/27 11:57:48;;;;;;;5.43;4.20;;;4.50;99.90;;;;;;4970779;28;20673;-74
2020/12/27 12:00:15;;;;;;;3.90;3.03;;;4.50;99.90;;;;;;4970657;28;20210;-73
2020/12/27 12:02:42;;;;;;;5.23;3.47;;;4.60;99.90;;;;;;4976057;28;20205;-72
2020/12/27 12:05:09;;;;;;;5.77;3.43;;;4.70;99.90;;;;;;4975505;28;20205;-76
2020/12/27 12:07:35;;;;;;;5.13;3.73;;;4.60;99.90;;;;;;4973775;28;20214;-70
2020/12/27 12:10:02;;;;;;;5.80;3.43;;;4.60;99.90;;;;;;4975948;28;20235;-73
2020/12/27 12:12:28;;;;;;;5.77;3.63;;;4.60;99.90;;;;;;4990439;28;20291;-72
2020/12/27 12:14:55;;;;;;;4.20;3.77;;;4.70;99.90;;;;;;4988187;28;20220;-74
2020/12/27 12:17:22;;;;;;;3.97;3.30;;;4.70;99.90;;;;;;4991689;28;20249;-72
2020/12/27 12:19:49;;;;;;;5.90;4.37;;;4.80;99.90;;;;;;4992144;28;20243;-72
2020/12/27 12:22:15;;;;;;;5.53;3.10;;;4.80;99.90;;;;;;4994288;28;20204;-70
2020/12/27 12:24:41;;;;;;;3.50;2.63;;;4.70;99.90;;;;;;4994269;28;20237;-71
2020/12/27 12:27:08;;;;;;;4.17;2.57;;;4.80;99.90;;;;;;4994467;28;20240;-73
2020/12/27 12:29:34;;;;;;;3.43;2.77;;;4.80;99.90;;;;;;4993753;28;20209;-70
2020/12/27 12:32:01;;;;;;;3.73;2.50;;;5.00;99.90;;;;;;4994070;28;20272;-72
2020/12/27 12:34:28;;;;;;;5.40;2.23;;;5.00;99.90;;;;;;4993887;28;20240;-71
2020/12/27 12:36:54;;;;;;;4.43;2.47;;;5.00;99.90;;;;;;4994574;28;20208;-72
2020/12/27 12:39:21;;;;;;;2.70;1.60;;;5.00;99.90;;;;;;4994301;28;20287;-70
2020/12/27 12:41:47;;;;;;;3.47;2.37;;;5.00;99.90;;;;;;4994263;28;20256;-71
2020/12/27 12:44:14;;;;;;;6.13;3.83;;;5.00;99.90;;;;;;4993642;28;20208;-70
2020/12/27 12:46:40;;;;;;;2.77;2.17;;;5.00;99.90;;;;;;4991418;28;20213;-72
2020/12/27 12:49:07;;;;;;;2.63;2.20;;;5.00;99.90;;;;;;4993383;28;20204;-72